Shaftsburg, Michigan
Current Conditions -  °F | °C
As of 4:53 PM on Saturday 25 Oct 2014 (Local Time) from KLAN Reporting Station
Clear Clear  
Wind Chill: 18°   Ceiling: Unl
Heat Index: 18°   Visibility: 10mi
Dew Point:   Wind: 15mph
Humidity: 31%   Direction: 280°W
Pressure: 29.79"   Gusts: 36mph
Location:  42.8°N, 84.29°W
Report Text: KLAN 252053Z 28013G31KT 10SM CLR 18/01 A2979 RMK AO2 PK WND 28035/2027 SLP087 T01780006 55001
Loading
Personal Weather Stations






























Interactive Weather Map
Tropical Storm Tracking
New forecast layout! Learn more

10-Day Weather Forecast

Advertisements
Track Severe Weather on mobile